^^
Datos históricos de la estación: Murcia-Puente Tocinos
Diario Informe para Junio 29, 2019 Unidades:  Ambas    Ingés   Métrico
Diario Semanal Mensual Anual
  Máxima: Mínima: Promedio:
Temperatura: 73.8 °F /  23.2 °C 62.4 °F /  16.9 °C 68 °F /  20 °C
Punto de rocio: 60.6 °F /  15.9 °C 43 °F /  6.1 °C 53.4 °F /  11.9 °C
Humedad: 86% 40% 62%
Velocidad viento: 11.8mph /  19km/h - 5.2mph /  8.4km/h
Racha viento: 25mph /  40.2km/h - -
Viento- - Este
Presión: 30.2 in /  1022.3 hPa 30 in /  1015.6 hPa -
Precipitación: 0 in /  0.0 mm    
 
 
Tabla de datos para Junio 29, 2019
Hora Temperatura Punto de rocio Presión Viento Velocidad viento Racha viento Humedad Intensidad lluvia(por hora) Nubes
00:04 65.7 °F /  18.7 °C 60.4 °F /  15.8 °C 30in /  1015.6hPa NE 6.2mph /  10km/h 11mph /  17.7km/h 83.3% 0in /  0.0mm
00:09 65.7 °F /  18.7 °C 60.6 °F /  15.9 °C 30in /  1015.6hPa NE 6.1mph /  9.8km/h 9mph /  14.5km/h 84% 0in /  0.0mm
00:14 65.7 °F /  18.7 °C 60.6 °F /  15.9 °C 30in /  1015.6hPa NNE 5.9mph /  9.5km/h 8.1mph /  13km/h 84% 0in /  0.0mm
00:19 65.7 °F /  18.7 °C 60.6 °F /  15.9 °C 30in /  1015.6hPa NNE 5.5mph /  8.8km/h 8.1mph /  13km/h 84% 0in /  0.0mm
00:24 65.5 °F /  18.6 °C 60.4 °F /  15.8 °C 30in /  1015.6hPa NNE 4.7mph /  7.6km/h 6mph /  9.7km/h 84% 0in /  0.0mm
00:29 65.5 °F /  18.6 °C 60.4 °F /  15.8 °C 30in /  1015.6hPa NNE 4.3mph /  6.9km/h 6mph /  9.7km/h 84% 0in /  0.0mm
00:34 65.5 °F /  18.6 °C 60.4 °F /  15.8 °C 30in /  1015.7hPa NNE 3.6mph /  5.8km/h 6.2mph /  10km/h 84% 0in /  0.0mm
00:39 65.5 °F /  18.6 °C 60.4 °F /  15.8 °C 30in /  1015.7hPa NNE 3.4mph /  5.5km/h 6mph /  9.7km/h 84% 0in /  0.0mm
00:44 65.5 °F /  18.6 °C 60.4 °F /  15.8 °C 30in /  1015.7hPa NNE 3.1mph /  5km/h 6mph /  9.7km/h 84% 0in /  0.0mm
00:49 65.5 °F /  18.6 °C 60.4 °F /  15.8 °C 30in /  1015.7hPa NNE 3mph /  4.9km/h 5.2mph /  8.4km/h 84% 0in /  0.0mm
00:54 65.5 °F /  18.6 °C 60.4 °F /  15.8 °C 30in /  1015.7hPa NNE 2.9mph /  4.7km/h 5mph /  8km/h 84% 0in /  0.0mm
00:59 65.5 °F /  18.6 °C 60.4 °F /  15.8 °C 30in /  1015.7hPa NE 2.7mph /  4.3km/h 5.9mph /  9.5km/h 83.9% 0in /  0.0mm
01:04 65.5 °F /  18.6 °C 60.3 °F /  15.7 °C 30in /  1015.8hPa NE 2.4mph /  3.9km/h 6mph /  9.7km/h 83% 0in /  0.0mm
01:09 65.5 °F /  18.6 °C 60.3 °F /  15.7 °C 30in /  1015.8hPa NE 2.9mph /  4.6km/h 6mph /  9.7km/h 83% 0in /  0.0mm
01:14 65.5 °F /  18.6 °C 60.3 °F /  15.7 °C 30in /  1015.8hPa NE 3.6mph /  5.8km/h 6mph /  9.7km/h 83% 0in /  0.0mm
01:19 65.5 °F /  18.6 °C 60.3 °F /  15.7 °C 30in /  1015.8hPa NE 3.6mph /  5.8km/h 6mph /  9.7km/h 83% 0in /  0.0mm
01:24 65.5 °F /  18.6 °C 60.3 °F /  15.7 °C 30in /  1015.8hPa Este 3.6mph /  5.8km/h 5.8mph /  9.3km/h 83% 0in /  0.0mm
01:29 65.7 °F /  18.7 °C 60.4 °F /  15.8 °C 30in /  1015.8hPa ENE 3.2mph /  5.1km/h 6mph /  9.7km/h 83% 0in /  0.0mm
01:34 65.7 °F /  18.7 °C 60.1 °F /  15.6 °C 30in /  1016.0hPa NNE 2.4mph /  3.9km/h 5mph /  8km/h 82.1% 0in /  0.0mm
01:39 65.7 °F /  18.7 °C 60.1 °F /  15.6 °C 30in /  1016.0hPa NNE 2.2mph /  3.6km/h 5mph /  8km/h 82% 0in /  0.0mm
01:44 65.7 °F /  18.7 °C 60.1 °F /  15.6 °C 30in /  1016.0hPa North 2mph /  3.2km/h 5mph /  8km/h 82% 0in /  0.0mm
01:49 65.7 °F /  18.7 °C 60.1 °F /  15.6 °C 30in /  1016.0hPa North 1.9mph /  3.1km/h 3.6mph /  5.8km/h 82% 0in /  0.0mm
01:54 65.7 °F /  18.7 °C 60.1 °F /  15.6 °C 30in /  1016.0hPa NNO 1.8mph /  2.9km/h 4mph /  6.4km/h 82% 0in /  0.0mm
01:59 65.7 °F /  18.7 °C 59.9 °F /  15.5 °C 30in /  1016.0hPa NNO 1.8mph /  2.9km/h 5mph /  8km/h 82% 0in /  0.0mm
02:04 65.5 °F /  18.6 °C 60.1 °F /  15.6 °C 30in /  1016.1hPa NNO 1.8mph /  2.9km/h 5mph /  8km/h 82.8% 0in /  0.0mm
02:09 65.5 °F /  18.6 °C 60.3 °F /  15.7 °C 30in /  1016.1hPa NNO 1.9mph /  3km/h 5mph /  8km/h 83% 0in /  0.0mm
02:14 65.5 °F /  18.6 °C 60.3 °F /  15.7 °C 30in /  1016.1hPa NNO 2mph /  3.2km/h 4.6mph /  7.4km/h 83% 0in /  0.0mm
02:19 65.5 °F /  18.6 °C 60.3 °F /  15.7 °C 30in /  1016.1hPa NNO 1.8mph /  2.9km/h 5mph /  8km/h 83% 0in /  0.0mm
02:24 65.5 °F /  18.6 °C 60.3 °F /  15.7 °C 30in /  1016.1hPa NNO 1.4mph /  2.2km/h 3.5mph /  5.6km/h 83% 0in /  0.0mm
02:29 65.5 °F /  18.6 °C 60.3 °F /  15.7 °C 30in /  1016.1hPa NNO 0.9mph /  1.4km/h 3mph /  4.8km/h 83% 0in /  0.0mm
02:34 65.5 °F /  18.6 °C 60.3 °F /  15.7 °C 30in /  1016.1hPa Calm   2.4mph /  3.9km/h 83% 0in /  0.0mm
02:39 65.5 °F /  18.6 °C 60.3 °F /  15.7 °C 30in /  1016.1hPa Calm   2.4mph /  3.9km/h 83% 0in /  0.0mm
02:44 65.5 °F /  18.6 °C 59.9 °F /  15.5 °C 30in /  1016.1hPa Calm   3.6mph /  5.8km/h 82.2% 0in /  0.0mm
02:49 65.5 °F /  18.6 °C 59.9 °F /  15.5 °C 30in /  1016.1hPa NNO 0.5mph /  0.8km/h 4mph /  6.4km/h 82% 0in /  0.0mm
02:54 65.7 °F /  18.7 °C 59.9 °F /  15.5 °C 30in /  1016.0hPa NNO 1.4mph /  2.2km/h 3mph /  4.8km/h 82% 0in /  0.0mm
02:59 65.7 °F /  18.7 °C 60.1 °F /  15.6 °C 30in /  1016.0hPa NNO 0.8mph /  1.3km/h 2.3mph /  3.7km/h 82% 0in /  0.0mm
03:04 65.7 °F /  18.7 °C 59.7 °F /  15.4 °C 30in /  1016.1hPa Calm   3.6mph /  5.8km/h 81.3% 0in /  0.0mm
03:09 65.7 °F /  18.7 °C 59.7 °F /  15.4 °C 30in /  1016.1hPa Oeste 0.7mph /  1.1km/h 4mph /  6.4km/h 81% 0in /  0.0mm
03:14 65.7 °F /  18.7 °C 59.7 °F /  15.4 °C 30in /  1016.1hPa Oeste 1.8mph /  2.9km/h 4.6mph /  7.4km/h 81% 0in /  0.0mm
03:19 65.7 °F /  18.7 °C 59.4 °F /  15.2 °C 30in /  1016.1hPa Oeste 1.9mph /  3km/h 5mph /  8km/h 80.1% 0in /  0.0mm
03:24 65.7 °F /  18.7 °C 59.5 °F /  15.3 °C 30in /  1016.1hPa SSO 2mph /  3.2km/h 5mph /  8km/h 80.8% 0in /  0.0mm
03:29 65.7 °F /  18.7 °C 59.9 °F /  15.5 °C 30in /  1016.1hPa Sur 2.2mph /  3.5km/h 5mph /  8km/h 81.6% 0in /  0.0mm
03:34 65.7 °F /  18.7 °C 59.9 °F /  15.5 °C 30in /  1016.2hPa Sur 2.4mph /  3.9km/h 5mph /  8km/h 81.6% 0in /  0.0mm
03:39 65.5 °F /  18.6 °C 59.5 °F /  15.3 °C 30in /  1016.2hPa Sur 1.6mph /  2.5km/h 3mph /  4.8km/h 81.3% 0in /  0.0mm
03:44 65.1 °F /  18.4 °C 59.5 °F /  15.3 °C 30in /  1016.2hPa Calm     82% 0in /  0.0mm
03:49 65.1 °F /  18.4 °C 59.5 °F /  15.3 °C 30in /  1016.3hPa Calm     82% 0in /  0.0mm
03:54 64.9 °F /  18.3 °C 59.7 °F /  15.4 °C 30in /  1016.3hPa Calm     82.9% 0in /  0.0mm
03:59 64.9 °F /  18.3 °C 59.7 °F /  15.4 °C 30in /  1016.3hPa Calm   4.7mph /  7.6km/h 83% 0in /  0.0mm
04:04 64.9 °F /  18.3 °C 59.7 °F /  15.4 °C 30in /  1016.5hPa Calm   5mph /  8km/h 83.2% 0in /  0.0mm
04:09 64.9 °F /  18.3 °C 60.1 °F /  15.6 °C 30in /  1016.5hPa Oeste 0.8mph /  1.3km/h 5mph /  8km/h 84% 0in /  0.0mm
04:14 64.9 °F /  18.3 °C 60.1 °F /  15.6 °C 30in /  1016.5hPa OSO 2.4mph /  3.9km/h 5.2mph /  8.4km/h 84% 0in /  0.0mm
04:19 64.9 °F /  18.3 °C 60.1 °F /  15.6 °C 30in /  1016.6hPa SO 2.6mph /  4.2km/h 5.9mph /  9.5km/h 84% 0in /  0.0mm
04:24 64.9 °F /  18.3 °C 60.1 °F /  15.6 °C 30in /  1016.6hPa OSO 2.9mph /  4.7km/h 6.9mph /  11.1km/h 84% 0in /  0.0mm
04:29 64.9 °F /  18.3 °C 60.1 °F /  15.6 °C 30in /  1016.6hPa OSO 3.2mph /  5.1km/h 7mph /  11.3km/h 84% 0in /  0.0mm
04:34 64.9 °F /  18.3 °C 60.1 °F /  15.6 °C 30in /  1016.6hPa SO 3.6mph /  5.8km/h 6.9mph /  11.1km/h 84% 0in /  0.0mm
04:39 64.9 °F /  18.3 °C 59.9 °F /  15.5 °C 30in /  1016.6hPa SSO 3.7mph /  6km/h 7mph /  11.3km/h 84% 0in /  0.0mm
04:44 64.8 °F /  18.2 °C 59.7 °F /  15.4 °C 30in /  1016.6hPa SSO 4mph /  6.5km/h 7mph /  11.3km/h 84% 0in /  0.0mm
04:49 64.8 °F /  18.2 °C 59.7 °F /  15.4 °C 30in /  1016.6hPa SO 3.9mph /  6.2km/h 6.9mph /  11.1km/h 84% 0in /  0.0mm
04:54 64.8 °F /  18.2 °C 59.7 °F /  15.4 °C 30in /  1016.6hPa OSO 3.6mph /  5.8km/h 7mph /  11.3km/h 84% 0in /  0.0mm
04:59 64.8 °F /  18.2 °C 59.7 °F /  15.4 °C 30in /  1016.6hPa OSO 3mph /  4.8km/h 5mph /  8km/h 84% 0in /  0.0mm
05:04 64.8 °F /  18.2 °C 59.7 °F /  15.4 °C 30in /  1016.7hPa OSO 2mph /  3.2km/h 4.3mph /  6.9km/h 84% 0in /  0.0mm
05:09 64.8 °F /  18.2 °C 59.7 °F /  15.4 °C 30in /  1016.7hPa SO 1.9mph /  3.1km/h 5mph /  8km/h 84% 0in /  0.0mm
05:14 64.8 °F /  18.2 °C 59.7 °F /  15.4 °C 30in /  1016.7hPa SO 1.8mph /  2.9km/h 4.6mph /  7.4km/h 84% 0in /  0.0mm
05:19 64.8 °F /  18.2 °C 59.7 °F /  15.4 °C 30in /  1016.8hPa OSO 1.8mph /  2.9km/h 5mph /  8km/h 84% 0in /  0.0mm
05:24 64.6 °F /  18.1 °C 59.5 °F /  15.3 °C 30in /  1016.8hPa OSO 1.8mph /  2.9km/h 5mph /  8km/h 84% 0in /  0.0mm
05:29 64.6 °F /  18.1 °C 59.5 °F /  15.3 °C 30in /  1016.8hPa OSO 1.9mph /  3km/h 5mph /  8km/h 84% 0in /  0.0mm
05:34 64.6 °F /  18.1 °C 59.5 °F /  15.3 °C 30in /  1016.8hPa OSO 2mph /  3.2km/h 5mph /  8km/h 84% 0in /  0.0mm
05:39 64.6 °F /  18.1 °C 59.5 °F /  15.3 °C 30in /  1016.8hPa SO 2.2mph /  3.5km/h 5.2mph /  8.4km/h 84% 0in /  0.0mm
05:44 64.4 °F /  18 °C 59.5 °F /  15.3 °C 30in /  1016.8hPa Sur 2.4mph /  3.9km/h 5.2mph /  8.4km/h 84% 0in /  0.0mm
05:49 64.2 °F /  17.9 °C 59.5 °F /  15.3 °C 30in /  1016.8hPa SSE 2.7mph /  4.3km/h 5mph /  8km/h 85% 0in /  0.0mm
05:54 64 °F /  17.8 °C 59.5 °F /  15.3 °C 30in /  1016.8hPa SSE 3.1mph /  5km/h 5mph /  8km/h 85% 0in /  0.0mm
05:59 64 °F /  17.8 °C 59.4 °F /  15.2 °C 30in /  1016.8hPa Sur 3.1mph /  5km/h 5mph /  8km/h 85% 0in /  0.0mm
06:04 64 °F /  17.8 °C 59.4 °F /  15.2 °C 30in /  1016.9hPa Sur 3.1mph /  5km/h 5mph /  8km/h 85% 0in /  0.0mm
06:09 64 °F /  17.8 °C 59.4 °F /  15.2 °C 30in /  1016.9hPa Sur 2.9mph /  4.6km/h 5mph /  8km/h 85% 0in /  0.0mm
06:14 64 °F /  17.8 °C 59.4 °F /  15.2 °C 30in /  1016.9hPa SSE 2.4mph /  3.9km/h 5mph /  8km/h 85% 0in /  0.0mm
06:19 64 °F /  17.8 °C 59.4 °F /  15.2 °C 30in /  1017.1hPa Sur 2.4mph /  3.9km/h 5mph /  8km/h 84.7% 0in /  0.0mm
06:24 63.9 °F /  17.7 °C 59 °F /  15 °C 30in /  1017.1hPa SSE 2.4mph /  3.9km/h 3.6mph /  5.8km/h 84% 0in /  0.0mm
06:29 63.9 °F /  17.7 °C 58.8 °F /  14.9 °C 30in /  1017.1hPa SSE 2.1mph /  3.3km/h 4mph /  6.4km/h 84% 0in /  0.0mm
06:34 63.7 °F /  17.6 °C 58.6 °F /  14.8 °C 30in /  1017.1hPa SSE 1.4mph /  2.2km/h 3mph /  4.8km/h 84% 0in /  0.0mm
06:39 63.3 °F /  17.4 °C 58.5 °F /  14.7 °C 30in /  1017.1hPa SSE 0.9mph /  1.4km/h 5.4mph /  8.7km/h 84% 0in /  0.0mm
06:44 63.1 °F /  17.3 °C 58.3 °F /  14.6 °C 30in /  1017.1hPa Calm   6mph /  9.7km/h 84.4% 0in /  0.0mm
06:49 63 °F /  17.2 °C 58.3 °F /  14.6 °C 30in /  1017.3hPa ESE 0.7mph /  1.1km/h 5mph /  8km/h 85% 0in /  0.0mm
06:54 62.8 °F /  17.1 °C 58.5 °F /  14.7 °C 30in /  1017.3hPa ESE 1.8mph /  2.9km/h   85.8% 0in /  0.0mm
06:59 62.8 °F /  17.1 °C 58.5 °F /  14.7 °C 30in /  1017.3hPa ESE 1.1mph /  1.8km/h   85.8% 0in /  0.0mm
07:04 62.8 °F /  17.1 °C 58.1 °F /  14.5 °C 30.1in /  1017.6hPa Calm     85% 0in /  0.0mm
07:09 62.4 °F /  16.9 °C 57.9 °F /  14.4 °C 30.1in /  1017.6hPa Calm     85% 0in /  0.0mm
07:14 62.4 °F /  16.9 °C 57.7 °F /  14.3 °C 30.1in /  1017.6hPa Calm   1.4mph /  2.3km/h 85% 0in /  0.0mm
07:19 62.4 °F /  16.9 °C 57.9 °F /  14.4 °C 30.1in /  1017.6hPa Calm   1mph /  1.6km/h 85.5% 0in /  0.0mm
07:24 62.4 °F /  16.9 °C 58.3 °F /  14.6 °C 30.1in /  1017.6hPa Calm     86% 0in /  0.0mm
07:29 62.4 °F /  16.9 °C 58.3 °F /  14.6 °C 30.1in /  1017.6hPa Calm     86% 0in /  0.0mm
07:34 62.8 °F /  17.1 °C 58.5 °F /  14.7 °C 30.1in /  1017.9hPa Calm   3.1mph /  5km/h 86% 0in /  0.0mm
07:39 63 °F /  17.2 °C 58.8 °F /  14.9 °C 30.1in /  1017.9hPa Calm   4mph /  6.4km/h 86% 0in /  0.0mm
07:44 63.5 °F /  17.5 °C 58.8 °F /  14.9 °C 30.1in /  1017.9hPa Calm   4mph /  6.4km/h 85.1% 0in /  0.0mm
07:49 63.7 °F /  17.6 °C 58.8 °F /  14.9 °C 30.1in /  1018.2hPa ENE 0.6mph /  1km/h 4mph /  6.4km/h 84.1% 0in /  0.0mm
07:54 63.9 °F /  17.7 °C 58.8 °F /  14.9 °C 30.1in /  1018.2hPa ENE 1.8mph /  2.9km/h 4.3mph /  6.9km/h 83.3% 0in /  0.0mm
07:59 64 °F /  17.8 °C 58.5 °F /  14.7 °C 30.1in /  1018.2hPa Este 1.8mph /  2.9km/h 5mph /  8km/h 82.2% 0in /  0.0mm
08:04 63.9 °F /  17.7 °C 58.3 °F /  14.6 °C 30.1in /  1018.4hPa ESE 1.8mph /  2.9km/h 5.2mph /  8.4km/h 82% 0in /  0.0mm
08:09 63.7 °F /  17.6 °C 58.3 °F /  14.6 °C 30.1in /  1018.4hPa ESE 2mph /  3.2km/h 5mph /  8km/h 82.8% 0in /  0.0mm
08:14 63.9 °F /  17.7 °C 58.5 °F /  14.7 °C 30.1in /  1018.4hPa Este 2.4mph /  3.9km/h 5.2mph /  8.4km/h 83% 0in /  0.0mm
08:19 64 °F /  17.8 °C 58.8 °F /  14.9 °C 30.1in /  1018.5hPa NE 2.5mph /  4.1km/h 5.2mph /  8.4km/h 83% 0in /  0.0mm
08:24 64.2 °F /  17.9 °C 59 °F /  15 °C 30.1in /  1018.5hPa NE 2.9mph /  4.7km/h 5mph /  8km/h 83% 0in /  0.0mm
08:29 64.8 °F /  18.2 °C 59 °F /  15 °C 30.1in /  1018.5hPa ENE 2.5mph /  4.1km/h 5.2mph /  8.4km/h 82.1% 0in /  0.0mm
08:34 64.9 °F /  18.3 °C 59.2 °F /  15.1 °C 30.1in /  1018.7hPa NE 2mph /  3.2km/h 5mph /  8km/h 82% 0in /  0.0mm
08:39 65.5 °F /  18.6 °C 59.5 °F /  15.3 °C 30.1in /  1018.7hPa NNE 2mph /  3.2km/h 4.6mph /  7.4km/h 81.4% 0in /  0.0mm
08:44 65.8 °F /  18.8 °C 59.4 °F /  15.2 °C 30.1in /  1018.7hPa North 2mph /  3.2km/h 5mph /  8km/h 79.8% 0in /  0.0mm
08:49 66.2 °F /  19 °C 59 °F /  15 °C 30.1in /  1018.8hPa NE 1.9mph /  3.1km/h 5mph /  8km/h 77.5% 0in /  0.0mm
08:54 66.4 °F /  19.1 °C 58.1 °F /  14.5 °C 30.1in /  1018.8hPa NE 1.8mph /  2.9km/h 5.8mph /  9.3km/h 75% 0in /  0.0mm
08:59 66 °F /  18.9 °C 57.2 °F /  14 °C 30.1in /  1018.8hPa NE 2.5mph /  4.1km/h 6.9mph /  11.1km/h 73.2% 0in /  0.0mm
09:04 65.7 °F /  18.7 °C 56.7 °F /  13.7 °C 30.1in /  1018.8hPa NE 3.6mph /  5.8km/h 8.1mph /  13km/h 72.6% 0in /  0.0mm
09:09 65.7 °F /  18.7 °C 55.9 °F /  13.3 °C 30.1in /  1018.8hPa ENE 4.2mph /  6.7km/h 10.4mph /  16.7km/h 70.7% 0in /  0.0mm
09:14 65.8 °F /  18.8 °C 55.8 °F /  13.2 °C 30.1in /  1018.8hPa NE 5.2mph /  8.4km/h 11.5mph /  18.5km/h 70% 0in /  0.0mm
09:19 66 °F /  18.9 °C 55.4 °F /  13 °C 30.1in /  1019.0hPa NE 5.3mph /  8.5km/h 12mph /  19.3km/h 68.6% 0in /  0.0mm
09:24 66 °F /  18.9 °C 54.3 °F /  12.4 °C 30.1in /  1019.0hPa NE 5.4mph /  8.7km/h 11.2mph /  18km/h 66% 0in /  0.0mm
09:29 66.2 °F /  19 °C 53.4 °F /  11.9 °C 30.1in /  1019.0hPa NE 5.6mph /  9km/h 13mph /  20.9km/h 63.2% 0in /  0.0mm
09:34 66.6 °F /  19.2 °C 52.9 °F /  11.6 °C 30.1in /  1019.1hPa NE 5.9mph /  9.5km/h 13mph /  20.9km/h 61.5% 0in /  0.0mm
09:39 66.7 °F /  19.3 °C 53.4 °F /  11.9 °C 30.1in /  1019.1hPa NE 6mph /  9.7km/h 13mph /  20.9km/h 62.4% 0in /  0.0mm
09:44 66.9 °F /  19.4 °C 53.1 °F /  11.7 °C 30.1in /  1019.1hPa NE 6.2mph /  10km/h 12.7mph /  20.4km/h 61.1% 0in /  0.0mm
09:49 67.1 °F /  19.5 °C 52 °F /  11.1 °C 30.1in /  1019.3hPa NE 6.5mph /  10.4km/h 13mph /  20.9km/h 58.5% 0in /  0.0mm
09:54 67.6 °F /  19.8 °C 51.8 °F /  11 °C 30.1in /  1019.3hPa NE 6.9mph /  11.1km/h 12mph /  19.3km/h 56.9% 0in /  0.0mm
09:59 68 °F /  20 °C 51.6 °F /  10.9 °C 30.1in /  1019.3hPa NE 6.7mph /  10.8km/h 11.5mph /  18.5km/h 55.7% 0in /  0.0mm
10:04 68.4 °F /  20.2 °C 51.6 °F /  10.9 °C 30.1in /  1019.3hPa NE 6.4mph /  10.3km/h 12mph /  19.3km/h 55.1% 0in /  0.0mm
10:09 68.4 °F /  20.2 °C 52.2 °F /  11.2 °C 30.1in /  1019.2hPa Este 6.3mph /  10.2km/h 12mph /  19.3km/h 56% 0in /  0.0mm
10:14 68.7 °F /  20.4 °C 52 °F /  11.1 °C 30.1in /  1019.2hPa Este 6.2mph /  10km/h 10mph /  16.1km/h 55.4% 0in /  0.0mm
10:19 68.7 °F /  20.4 °C 51.8 °F /  11 °C 30.1in /  1019.2hPa ESE 6.1mph /  9.8km/h 10.4mph /  16.7km/h 54.9% 0in /  0.0mm
10:24 68.7 °F /  20.4 °C 51.6 °F /  10.9 °C 30.1in /  1019.1hPa Este 5.9mph /  9.5km/h 11.5mph /  18.5km/h 54.5% 0in /  0.0mm
10:29 68.9 °F /  20.5 °C 51.1 °F /  10.6 °C 30.1in /  1019.1hPa NE 6.1mph /  9.8km/h 12mph /  19.3km/h 53.1% 0in /  0.0mm
10:34 68.7 °F /  20.4 °C 50.9 °F /  10.5 °C 30.1in /  1019.1hPa NE 6.4mph /  10.3km/h 13.8mph /  22.2km/h 53% 0in /  0.0mm
10:39 68.7 °F /  20.4 °C 51.3 °F /  10.7 °C 30.1in /  1019.1hPa ENE 6.3mph /  10.2km/h 14mph /  22.5km/h 53.5% 0in /  0.0mm
10:44 69.3 °F /  20.7 °C 51.6 °F /  10.9 °C 30.1in /  1019.1hPa NE 6.2mph /  10km/h 13mph /  20.9km/h 53.2% 0in /  0.0mm
10:49 69.6 °F /  20.9 °C 51.4 °F /  10.8 °C 30.1in /  1019.1hPa ENE 6.1mph /  9.8km/h 13mph /  20.9km/h 52.7% 0in /  0.0mm
10:54 69.4 °F /  20.8 °C 51.1 °F /  10.6 °C 30.1in /  1019.1hPa NE 5.9mph /  9.5km/h 11.8mph /  19km/h 52% 0in /  0.0mm
10:59 69.4 °F /  20.8 °C 51.4 °F /  10.8 °C 30.1in /  1019.1hPa NE 6.1mph /  9.8km/h 15.6mph /  25.1km/h 52.7% 0in /  0.0mm
11:04 69.6 °F /  20.9 °C 51.4 °F /  10.8 °C 30.1in /  1019.1hPa NE 6.4mph /  10.3km/h 16mph /  25.7km/h 52.5% 0in /  0.0mm
11:09 69.6 °F /  20.9 °C 51.3 °F /  10.7 °C 30.1in /  1019.1hPa NE 6.8mph /  10.9km/h 12.7mph /  20.4km/h 52.2% 0in /  0.0mm
11:14 69.8 °F /  21 °C 51.4 °F /  10.8 °C 30.1in /  1019.1hPa ENE 7.4mph /  11.9km/h 13.8mph /  22.2km/h 52.4% 0in /  0.0mm
11:19 69.8 °F /  21 °C 51.1 °F /  10.6 °C 30.1in /  1019.3hPa ENE 7mph /  11.3km/h 14mph /  22.5km/h 51.7% 0in /  0.0mm
11:24 69.8 °F /  21 °C 51.8 °F /  11 °C 30.1in /  1019.3hPa NE 6.4mph /  10.3km/h 13mph /  20.9km/h 52.7% 0in /  0.0mm
11:29 70.2 °F /  21.2 °C 52 °F /  11.1 °C 30.1in /  1019.3hPa NE 6.4mph /  10.3km/h 15.2mph /  24.5km/h 52.5% 0in /  0.0mm
11:34 70 °F /  21.1 °C 51.4 °F /  10.8 °C 30.1in /  1019.3hPa NE 6.4mph /  10.3km/h 15mph /  24.1km/h 52% 0in /  0.0mm
11:39 69.6 °F /  20.9 °C 51.3 °F /  10.7 °C 30.1in /  1019.2hPa ENE 6.8mph /  11km/h 12mph /  19.3km/h 52% 0in /  0.0mm
11:44 69.8 °F /  21 °C 51.4 °F /  10.8 °C 30.1in /  1019.2hPa NE 7.6mph /  12.2km/h 12mph /  19.3km/h 52% 0in /  0.0mm
11:49 70.3 °F /  21.3 °C 51.4 °F /  10.8 °C 30.1in /  1019.2hPa ENE 6.2mph /  10km/h 9.2mph /  14.8km/h 51% 0in /  0.0mm
11:54 70.9 °F /  21.6 °C 51.3 °F /  10.7 °C 30.1in /  1019.0hPa NNE 4mph /  6.5km/h 9.2mph /  14.8km/h 49.9% 0in /  0.0mm
11:59 70.9 °F /  21.6 °C 51.3 °F /  10.7 °C 30.1in /  1019.0hPa NNE 4mph /  6.5km/h 10.4mph /  16.7km/h 49.8% 0in /  0.0mm
12:04 71.1 °F /  21.7 °C 51.3 °F /  10.7 °C 30.1in /  1019.1hPa North 4mph /  6.5km/h 10mph /  16.1km/h 49.9% 0in /  0.0mm
12:09 71.4 °F /  21.9 °C 51.8 °F /  11 °C 30.1in /  1019.1hPa NNE 4mph /  6.5km/h 9.2mph /  14.8km/h 50% 0in /  0.0mm
12:14 71.8 °F /  22.1 °C 52 °F /  11.1 °C 30.1in /  1019.1hPa North 4mph /  6.5km/h 9mph /  14.5km/h 49.7% 0in /  0.0mm
12:19 71.4 °F /  21.9 °C 52 °F /  11.1 °C 30.1in /  1019.1hPa NE 4.5mph /  7.3km/h 11.5mph /  18.5km/h 50.3% 0in /  0.0mm
12:24 71.2 °F /  21.8 °C 52.7 °F /  11.5 °C 30.1in /  1019.0hPa ENE 5.4mph /  8.7km/h 13mph /  20.9km/h 51.9% 0in /  0.0mm
12:29 71.2 °F /  21.8 °C 52.7 °F /  11.5 °C 30.1in /  1019.0hPa NNE 5.8mph /  9.3km/h 15mph /  24.1km/h 51.9% 0in /  0.0mm
12:34 71.1 °F /  21.7 °C 52.5 °F /  11.4 °C 30.1in /  1019.0hPa NNE 6.4mph /  10.3km/h 15mph /  24.1km/h 52.1% 0in /  0.0mm
12:39 71.2 °F /  21.8 °C 52.7 °F /  11.5 °C 30.1in /  1019.0hPa ENE 6.6mph /  10.6km/h 14mph /  22.5km/h 51.8% 0in /  0.0mm
12:44 71.4 °F /  21.9 °C 52.5 °F /  11.4 °C 30.1in /  1019.0hPa ENE 6.9mph /  11.1km/h 16.1mph /  25.9km/h 51.3% 0in /  0.0mm
12:49 71.4 °F /  21.9 °C 52.7 °F /  11.5 °C 30.1in /  1019.1hPa ENE 6.9mph /  11.1km/h 16mph /  25.7km/h 51.5% 0in /  0.0mm
12:54 71.6 °F /  22 °C 52.9 °F /  11.6 °C 30.1in /  1019.1hPa NE 6.9mph /  11.1km/h 16.1mph /  25.9km/h 51.7% 0in /  0.0mm
12:59 72 °F /  22.2 °C 52.9 °F /  11.6 °C 30.1in /  1019.1hPa NE 7.6mph /  12.3km/h 16mph /  25.7km/h 51% 0in /  0.0mm
13:04 72.1 °F /  22.3 °C 52.9 °F /  11.6 °C 30.1in /  1019.1hPa ENE 8.7mph /  14km/h 13mph /  20.9km/h 50.8% 0in /  0.0mm
13:09 72.1 °F /  22.3 °C 52.5 °F /  11.4 °C 30.1in /  1018.9hPa NE 8.2mph /  13.2km/h 13.8mph /  22.2km/h 50.3% 0in /  0.0mm
13:14 71.8 °F /  22.1 °C 52.7 °F /  11.5 °C 30.1in /  1018.9hPa Este 7.4mph /  11.9km/h 14mph /  22.5km/h 50.8% 0in /  0.0mm
13:19 72.1 °F /  22.3 °C 52.5 °F /  11.4 °C 30.1in /  1018.9hPa NE 6.5mph /  10.4km/h 10.4mph /  16.7km/h 50.2% 0in /  0.0mm
13:24 72.3 °F /  22.4 °C 52.3 °F /  11.3 °C 30.1in /  1018.7hPa NE 4.7mph /  7.6km/h 16.3mph /  26.2km/h 49.5% 0in /  0.0mm
13:29 72 °F /  22.2 °C 52.2 °F /  11.2 °C 30.1in /  1018.7hPa NNE 6mph /  9.6km/h 19mph /  30.6km/h 49.8% 0in /  0.0mm
13:34 72 °F /  22.2 °C 52 °F /  11.1 °C 30.1in /  1018.7hPa ENE 8.1mph /  13km/h 19mph /  30.6km/h 49.4% 0in /  0.0mm
13:39 72.1 °F /  22.3 °C 52 °F /  11.1 °C 30.1in /  1018.6hPa NE 7.5mph /  12km/h 15mph /  24.1km/h 49% 0in /  0.0mm
13:44 72.1 °F /  22.3 °C 52 °F /  11.1 °C 30.1in /  1018.6hPa ENE 6.4mph /  10.3km/h 15mph /  24.1km/h 49.1% 0in /  0.0mm
13:49 72.3 °F /  22.4 °C 52 °F /  11.1 °C 30.1in /  1018.6hPa ENE 6.6mph /  10.6km/h 14mph /  22.5km/h 49% 0in /  0.0mm
13:54 72.3 °F /  22.4 °C 52.2 °F /  11.2 °C 30.1in /  1018.5hPa NE 6.9mph /  11.1km/h 14mph /  22.5km/h 49% 0in /  0.0mm
13:59 72.9 °F /  22.7 °C 52.2 °F /  11.2 °C 30.1in /  1018.5hPa NE 6.6mph /  10.7km/h 12mph /  19.3km/h 48.5% 0in /  0.0mm
14:04 73 °F /  22.8 °C 52.2 °F /  11.2 °C 30.1in /  1018.5hPa NE 6.2mph /  10km/h 15mph /  24.1km/h 48.1% 0in /  0.0mm
14:09 73.2 °F /  22.9 °C 52.2 °F /  11.2 °C 30.1in /  1018.3hPa NE 6.6mph /  10.7km/h 15mph /  24.1km/h 47.9% 0in /  0.0mm
14:14 73.4 °F /  23 °C 52.2 °F /  11.2 °C 30.1in /  1018.3hPa Este 7.4mph /  11.9km/h 13mph /  20.9km/h 47.5% 0in /  0.0mm
14:19 73.8 °F /  23.2 °C 52.2 °F /  11.2 °C 30.1in /  1018.3hPa ENE 7mph /  11.3km/h 13mph /  20.9km/h 46.8% 0in /  0.0mm
14:24 73.8 °F /  23.2 °C 52.2 °F /  11.2 °C 30.1in /  1018.3hPa NE 6.4mph /  10.3km/h 15.2mph /  24.5km/h 46.9% 0in /  0.0mm
14:29 73.8 °F /  23.2 °C 52 °F /  11.1 °C 30.1in /  1018.3hPa NE 6.8mph /  11km/h 21.3mph /  34.3km/h 46.5% 0in /  0.0mm
14:34 73.2 °F /  22.9 °C 51.4 °F /  10.8 °C 30.1in /  1018.3hPa NE 7.6mph /  12.2km/h 21mph /  33.8km/h 46.4% 0in /  0.0mm
14:39 73.4 °F /  23 °C 51.6 °F /  10.9 °C 30.1in /  1018.3hPa NE 8.8mph /  14.1km/h 20.7mph /  33.3km/h 46.7% 0in /  0.0mm
14:44 73.6 °F /  23.1 °C 51.3 °F /  10.7 °C 30.1in /  1018.3hPa ENE 10.7mph /  17.2km/h 21mph /  33.8km/h 45.5% 0in /  0.0mm
14:49 73 °F /  22.8 °C 51.1 °F /  10.6 °C 30.1in /  1018.3hPa NE 10.1mph /  16.3km/h 20.4mph /  32.8km/h 46.1% 0in /  0.0mm
14:54 72.7 °F /  22.6 °C 51.1 °F /  10.6 °C 30.1in /  1018.2hPa NE 9.2mph /  14.8km/h 21mph /  33.8km/h 46.6% 0in /  0.0mm
14:59 72.7 °F /  22.6 °C 51.3 °F /  10.7 °C 30.1in /  1018.2hPa NE 10.2mph /  16.4km/h 21mph /  33.8km/h 46.8% 0in /  0.0mm
15:04 72.5 °F /  22.5 °C 51.1 °F /  10.6 °C 30.1in /  1018.3hPa NE 11.8mph /  19km/h 19mph /  30.6km/h 47% 0in /  0.0mm
15:09 72.1 °F /  22.3 °C 50.9 °F /  10.5 °C 30.1in /  1018.3hPa NE 11.6mph /  18.6km/h 21.3mph /  34.3km/h 47% 0in /  0.0mm
15:14 72.3 °F /  22.4 °C 51.3 °F /  10.7 °C 30.1in /  1018.3hPa ENE 11.2mph /  18km/h 22.3mph /  35.9km/h 47.4% 0in /  0.0mm
15:19 72.1 °F /  22.3 °C 50.9 °F /  10.5 °C 30.1in /  1018.4hPa ENE 10.9mph /  17.5km/h 22mph /  35.4km/h 46.9% 0in /  0.0mm
15:24 72.1 °F /  22.3 °C 50.7 °F /  10.4 °C 30.1in /  1018.4hPa NE 10.2mph /  16.4km/h 21.9mph /  35.2km/h 47% 0in /  0.0mm
15:29 72.3 °F /  22.4 °C 50.7 °F /  10.4 °C 30.1in /  1018.4hPa NE 10.2mph /  16.4km/h 22mph /  35.4km/h 46.6% 0in /  0.0mm
15:34 72.1 °F /  22.3 °C 50.5 °F /  10.3 °C 30.1in /  1018.5hPa NE 10.2mph /  16.4km/h 19mph /  30.6km/h 46.5% 0in /  0.0mm
15:39 72 °F /  22.2 °C 50.5 °F /  10.3 °C 30.1in /  1018.5hPa NE 10.6mph /  17km/h 19mph /  30.6km/h 46.9% 0in /  0.0mm
15:44 71.8 °F /  22.1 °C 50.2 °F /  10.1 °C 30.1in /  1018.5hPa NE 11.2mph /  18km/h 21.3mph /  34.3km/h 46.5% 0in /  0.0mm
15:49 71.4 °F /  21.9 °C 50.2 °F /  10.1 °C 30.1in /  1018.5hPa NE 11.4mph /  18.4km/h 21mph /  33.8km/h 47.2% 0in /  0.0mm
15:54 72 °F /  22.2 °C 50.2 °F /  10.1 °C 30.1in /  1018.4hPa NE 11.8mph /  19km/h 21.3mph /  34.3km/h 46.4% 0in /  0.0mm
15:59 72 °F /  22.2 °C 49.8 °F /  9.9 °C 30.1in /  1018.4hPa ENE 11.6mph /  18.7km/h 21mph /  33.8km/h 45.9% 0in /  0.0mm
16:04 71.8 °F /  22.1 °C 49.5 °F /  9.7 °C 30.1in /  1018.6hPa NE 11.4mph /  18.4km/h 21.5mph /  34.6km/h 45.2% 0in /  0.0mm
16:09 72 °F /  22.2 °C 49.5 °F /  9.7 °C 30.1in /  1018.6hPa ENE 10.9mph /  17.6km/h 22mph /  35.4km/h 45.2% 0in /  0.0mm
16:14 72 °F /  22.2 °C 49.5 °F /  9.7 °C 30.1in /  1018.6hPa ENE 10.2mph /  16.4km/h 24.6mph /  39.6km/h 45.1% 0in /  0.0mm
16:19 72 °F /  22.2 °C 49.8 °F /  9.9 °C 30.1in /  1018.6hPa ENE 10mph /  16.1km/h 25mph /  40.2km/h 45.5% 0in /  0.0mm
16:24 72 °F /  22.2 °C 49.6 °F /  9.8 °C 30.1in /  1018.6hPa ENE 9.7mph /  15.6km/h 20.7mph /  33.3km/h 45.2% 0in /  0.0mm
16:29 71.8 °F /  22.1 °C 49.6 °F /  9.8 °C 30.1in /  1018.6hPa ENE 9.5mph /  15.3km/h 21mph /  33.8km/h 45.6% 0in /  0.0mm
16:34 71.4 °F /  21.9 °C 49.5 °F /  9.7 °C 30.1in /  1018.6hPa NE 9.2mph /  14.8km/h 18mph /  29km/h 45.8% 0in /  0.0mm
16:39 71.6 °F /  22 °C 49.5 °F /  9.7 °C 30.1in /  1018.6hPa NE 10.1mph /  16.2km/h 19.7mph /  31.7km/h 45.7% 0in /  0.0mm
16:44 71.2 °F /  21.8 °C 49.3 °F /  9.6 °C 30.1in /  1018.6hPa NE 11.4mph /  18.4km/h 20mph /  32.2km/h 45.8% 0in /  0.0mm
16:49 71.2 °F /  21.8 °C 49.3 °F /  9.6 °C 30.1in /  1018.6hPa NE 11.3mph /  18.2km/h 19mph /  30.6km/h 46% 0in /  0.0mm
16:54 71.4 °F /  21.9 °C 49.1 °F /  9.5 °C 30.1in /  1018.6hPa NE 11.2mph /  18km/h 20.7mph /  33.3km/h 45.2% 0in /  0.0mm
16:59 71.1 °F /  21.7 °C 48.7 °F /  9.3 °C 30.1in /  1018.6hPa NE 11.2mph /  18km/h 21mph /  33.8km/h 45.1% 0in /  0.0mm
17:04 70.9 °F /  21.6 °C 48.9 °F /  9.4 °C 30.1in /  1018.6hPa NE 11.2mph /  18km/h 20mph /  32.2km/h 45.6% 0in /  0.0mm
17:09 71.2 °F /  21.8 °C 48.6 °F /  9.2 °C 30.1in /  1018.6hPa ENE 10.6mph /  17.1km/h 18mph /  29km/h 44.5% 0in /  0.0mm
17:14 71.2 °F /  21.8 °C 48.2 °F /  9 °C 30.1in /  1018.6hPa NE 9.7mph /  15.6km/h 20.7mph /  33.3km/h 43.9% 0in /  0.0mm
17:19 71.6 °F /  22 °C 48 °F /  8.9 °C 30.1in /  1018.6hPa ENE 9.3mph /  14.9km/h 21mph /  33.8km/h 43.1% 0in /  0.0mm
17:24 71.8 °F /  22.1 °C 47.7 °F /  8.7 °C 30.1in /  1018.6hPa ENE 8.5mph /  13.7km/h 18.5mph /  29.8km/h 42.5% 0in /  0.0mm
17:29 71.8 °F /  22.1 °C 47.3 °F /  8.5 °C 30.1in /  1018.6hPa Este 8.5mph /  13.7km/h 19mph /  30.6km/h 42% 0in /  0.0mm
17:34 71.6 °F /  22 °C 47.7 °F /  8.7 °C 30.1in /  1018.6hPa ENE 8.5mph /  13.7km/h 14mph /  22.5km/h 42.4% 0in /  0.0mm
17:39 71.8 °F /  22.1 °C 47.3 °F /  8.5 °C 30.1in /  1018.6hPa Este 8.6mph /  13.8km/h 15.2mph /  24.5km/h 41.8% 0in /  0.0mm
17:44 71.8 °F /  22.1 °C 47.5 °F /  8.6 °C 30.1in /  1018.6hPa ENE 8.7mph /  14km/h 15mph /  24.1km/h 42% 0in /  0.0mm
17:49 71.8 °F /  22.1 °C 46.9 °F /  8.3 °C 30.1in /  1018.6hPa ENE 8.7mph /  14km/h 17.3mph /  27.8km/h 41.4% 0in /  0.0mm
17:54 72 °F /  22.2 °C 47.1 °F /  8.4 °C 30.1in /  1018.6hPa ENE 8.7mph /  14km/h 17mph /  27.4km/h 41.4% 0in /  0.0mm
17:59 72 °F /  22.2 °C 46.9 °F /  8.3 °C 30.1in /  1018.6hPa NE 8.6mph /  13.9km/h 17mph /  27.4km/h 41% 0in /  0.0mm
18:04 71.8 °F /  22.1 °C 46.8 °F /  8.2 °C 30.1in /  1018.6hPa ENE 8.5mph /  13.7km/h 18.5mph /  29.8km/h 41% 0in /  0.0mm
18:09 71.4 °F /  21.9 °C 46.6 °F /  8.1 °C 30.1in /  1018.6hPa Este 9.1mph /  14.6km/h 19mph /  30.6km/h 41% 0in /  0.0mm
18:14 71.4 °F /  21.9 °C 46.9 °F /  8.3 °C 30.1in /  1018.6hPa ENE 10mph /  16.1km/h 16.1mph /  25.9km/h 41.5% 0in /  0.0mm
18:19 71.8 °F /  22.1 °C 46.9 °F /  8.3 °C 30.1in /  1018.7hPa ENE 9.5mph /  15.3km/h 17.5mph /  28.2km/h 41.4% 0in /  0.0mm
18:24 71.4 °F /  21.9 °C 46.8 °F /  8.2 °C 30.1in /  1018.7hPa NE 8.7mph /  14km/h 17.3mph /  27.8km/h 41.6% 0in /  0.0mm
18:29 71.2 °F /  21.8 °C 46.9 °F /  8.3 °C 30.1in /  1018.7hPa NE 8.9mph /  14.3km/h 17mph /  27.4km/h 41.8% 0in /  0.0mm
18:34 71.1 °F /  21.7 °C 46.4 °F /  8 °C 30.1in /  1018.7hPa NE 9.2mph /  14.8km/h 19mph /  30.6km/h 41.3% 0in /  0.0mm
18:39 71.1 °F /  21.7 °C 46.4 °F /  8 °C 30.1in /  1018.6hPa NE 9.4mph /  15.1km/h 18mph /  29km/h 41.2% 0in /  0.0mm
18:44 71.2 °F /  21.8 °C 46.8 °F /  8.2 °C 30.1in /  1018.6hPa ENE 9.7mph /  15.6km/h 16mph /  25.7km/h 41.7% 0in /  0.0mm
18:49 71.2 °F /  21.8 °C 46.8 °F /  8.2 °C 30.1in /  1018.7hPa NE 9.3mph /  14.9km/h 17.3mph /  27.8km/h 41.7% 0in /  0.0mm
18:54 71.2 °F /  21.8 °C 46.9 °F /  8.3 °C 30.1in /  1018.7hPa NE 8.5mph /  13.7km/h 17mph /  27.4km/h 42% 0in /  0.0mm
18:59 71.2 °F /  21.8 °C 47.3 °F /  8.5 °C 30.1in /  1018.7hPa NE 8.5mph /  13.7km/h 16.1mph /  25.9km/h 42.4% 0in /  0.0mm
19:04 71.2 °F /  21.8 °C 47.5 °F /  8.6 °C 30.1in /  1018.7hPa NE 8.5mph /  13.7km/h 16.1mph /  25.9km/h 43% 0in /  0.0mm
19:09 71.1 °F /  21.7 °C 47.5 °F /  8.6 °C 30.1in /  1018.5hPa NE 8.3mph /  13.4km/h 16mph /  25.7km/h 43.1% 0in /  0.0mm
19:14 71.2 °F /  21.8 °C 47.7 °F /  8.7 °C 30.1in /  1018.5hPa NE 8.1mph /  13km/h 17mph /  27.4km/h 43% 0in /  0.0mm
19:19 71.2 °F /  21.8 °C 47.5 °F /  8.6 °C 30.1in /  1018.7hPa NE 8.3mph /  13.3km/h 17.3mph /  27.8km/h 43% 0in /  0.0mm
19:24 71.2 °F /  21.8 °C 47.7 °F /  8.7 °C 30.1in /  1018.7hPa ENE 8.5mph /  13.7km/h 14mph /  22.5km/h 43% 0in /  0.0mm
19:29 71.4 °F /  21.9 °C 47.7 °F /  8.7 °C 30.1in /  1018.7hPa NE 7.9mph /  12.7km/h 13mph /  20.9km/h 43% 0in /  0.0mm
19:34 71.4 °F /  21.9 °C 47.7 °F /  8.7 °C 30.1in /  1018.7hPa NE 6.9mph /  11.1km/h 13mph /  20.9km/h 42.9% 0in /  0.0mm
19:39 71.2 °F /  21.8 °C 47.7 °F /  8.7 °C 30.1in /  1018.7hPa ENE 6.9mph /  11.1km/h 13mph /  20.9km/h 43% 0in /  0.0mm
19:44 71.2 °F /  21.8 °C 47.7 °F /  8.7 °C 30.1in /  1018.7hPa ENE 6.9mph /  11.1km/h 14.5mph /  23.3km/h 43% 0in /  0.0mm
19:49 71.2 °F /  21.8 °C 47.7 °F /  8.7 °C 30.1in /  1018.8hPa NE 7.5mph /  12km/h 15.2mph /  24.5km/h 43% 0in /  0.0mm
19:54 71.1 °F /  21.7 °C 47.5 °F /  8.6 °C 30.1in /  1018.8hPa NE 8.5mph /  13.7km/h 17.5mph /  28.2km/h 43% 0in /  0.0mm
19:59 71.1 °F /  21.7 °C 47.3 °F /  8.5 °C 30.1in /  1018.8hPa NE 8.1mph /  13.1km/h 17mph /  27.4km/h 43% 0in /  0.0mm
20:04 70.9 °F /  21.6 °C 47.3 °F /  8.5 °C 30.1in /  1019.1hPa NE 7.6mph /  12.2km/h 16.1mph /  25.9km/h 43% 0in /  0.0mm
20:09 70.7 °F /  21.5 °C 47.1 °F /  8.4 °C 30.1in /  1019.1hPa NE 8mph /  12.8km/h 16mph /  25.7km/h 43% 0in /  0.0mm
20:14 70.5 °F /  21.4 °C 46.9 °F /  8.3 °C 30.1in /  1019.1hPa NE 8.5mph /  13.7km/h 14mph /  22.5km/h 43% 0in /  0.0mm
20:19 70.3 °F /  21.3 °C 46.8 °F /  8.2 °C 30.1in /  1019.3hPa ENE 8.1mph /  13km/h 12.7mph /  20.4km/h 43% 0in /  0.0mm
20:24 70.2 °F /  21.2 °C 46.6 °F /  8.1 °C 30.1in /  1019.3hPa ENE 7.4mph /  11.9km/h 13.8mph /  22.2km/h 43% 0in /  0.0mm
20:29 69.8 °F /  21 °C 46.6 °F /  8.1 °C 30.1in /  1019.3hPa ENE 7.8mph /  12.5km/h 15mph /  24.1km/h 43.5% 0in /  0.0mm
20:34 69.6 °F /  20.9 °C 47.1 °F /  8.4 °C 30.1in /  1019.6hPa ENE 8.5mph /  13.7km/h 15mph /  24.1km/h 44.7% 0in /  0.0mm
20:39 69.6 °F /  20.9 °C 47.5 °F /  8.6 °C 30.1in /  1019.6hPa ENE 7.6mph /  12.2km/h 13mph /  20.9km/h 45.2% 0in /  0.0mm
20:44 69.4 °F /  20.8 °C 47.1 °F /  8.4 °C 30.1in /  1019.6hPa NE 5.9mph /  9.5km/h 11.8mph /  19km/h 45.1% 0in /  0.0mm
20:49 69.1 °F /  20.6 °C 46.8 °F /  8.2 °C 30.1in /  1019.8hPa NE 6.1mph /  9.8km/h 13.8mph /  22.2km/h 45% 0in /  0.0mm
20:54 68.7 °F /  20.4 °C 46.4 °F /  8 °C 30.1in /  1019.8hPa ENE 6.4mph /  10.3km/h 14mph /  22.5km/h 44.6% 0in /  0.0mm
20:59 68.7 °F /  20.4 °C 44.8 °F /  7.1 °C 30.1in /  1019.8hPa ENE 6.4mph /  10.3km/h 12.7mph /  20.4km/h 42.4% 0in /  0.0mm
21:04 68.5 °F /  20.3 °C 43.9 °F /  6.6 °C 30.1in /  1020.1hPa ENE 6.4mph /  10.3km/h 14mph /  22.5km/h 41% 0in /  0.0mm
21:09 68.4 °F /  20.2 °C 43.3 °F /  6.3 °C 30.1in /  1020.1hPa ENE 6.3mph /  10.2km/h 14mph /  22.5km/h 40.4% 0in /  0.0mm
21:14 68.4 °F /  20.2 °C 43 °F /  6.1 °C 30.1in /  1020.1hPa NE 6.2mph /  10km/h 11mph /  17.7km/h 40% 0in /  0.0mm
21:19 68.2 °F /  20.1 °C 43.5 °F /  6.4 °C 30.1in /  1020.3hPa NE 5.8mph /  9.4km/h 10mph /  16.1km/h 40.9% 0in /  0.0mm
21:24 67.8 °F /  19.9 °C 43.3 °F /  6.3 °C 30.1in /  1020.3hPa ENE 5.2mph /  8.4km/h 9.2mph /  14.8km/h 41% 0in /  0.0mm
21:29 67.8 °F /  19.9 °C 43.9 °F /  6.6 °C 30.1in /  1020.3hPa ENE 4.8mph /  7.7km/h 9mph /  14.5km/h 42% 0in /  0.0mm
21:34 67.6 °F /  19.8 °C 43.7 °F /  6.5 °C 30.1in /  1020.5hPa ENE 4mph /  6.5km/h 7.4mph /  11.9km/h 42% 0in /  0.0mm
21:39 67.5 °F /  19.7 °C 43.7 °F /  6.5 °C 30.1in /  1020.5hPa NE 4mph /  6.5km/h 7mph /  11.3km/h 42% 0in /  0.0mm
21:44 67.3 °F /  19.6 °C 43.9 °F /  6.6 °C 30.1in /  1020.5hPa NE 4mph /  6.5km/h 8.5mph /  13.7km/h 42.8% 0in /  0.0mm
21:49 67.1 °F /  19.5 °C 44.4 °F /  6.9 °C 30.1in /  1020.6hPa NE 4.1mph /  6.6km/h 10.4mph /  16.7km/h 43.8% 0in /  0.0mm
21:54 66.9 °F /  19.4 °C 44.8 °F /  7.1 °C 30.1in /  1020.6hPa NE 4.3mph /  6.9km/h 10mph /  16.1km/h 44.8% 0in /  0.0mm
21:59 66.6 °F /  19.2 °C 45.1 °F /  7.3 °C 30.1in /  1020.6hPa NE 4.3mph /  6.9km/h 8.1mph /  13km/h 45.9% 0in /  0.0mm
22:04 66.4 °F /  19.1 °C 45.9 °F /  7.7 °C 30.2in /  1020.9hPa NE 4.3mph /  6.9km/h 8.1mph /  13km/h 47.5% 0in /  0.0mm
22:09 66.2 °F /  19 °C 46.4 °F /  8 °C 30.2in /  1020.9hPa NE 4.5mph /  7.2km/h 8.1mph /  13km/h 48.9% 0in /  0.0mm
22:14 66 °F /  18.9 °C 46.9 °F /  8.3 °C 30.2in /  1020.9hPa NE 4.7mph /  7.6km/h 8.5mph /  13.7km/h 50.3% 0in /  0.0mm
22:19 65.8 °F /  18.8 °C 47.5 °F /  8.6 °C 30.2in /  1021.2hPa NE 4.9mph /  7.9km/h 9mph /  14.5km/h 51.4% 0in /  0.0mm
22:24 65.7 °F /  18.7 °C 47.8 °F /  8.8 °C 30.2in /  1021.2hPa NE 5.2mph /  8.4km/h 8.7mph /  14km/h 52.6% 0in /  0.0mm
22:29 65.7 °F /  18.7 °C 48.4 °F /  9.1 °C 30.2in /  1021.2hPa ENE 5.2mph /  8.4km/h 9.2mph /  14.8km/h 53.8% 0in /  0.0mm
22:34 65.5 °F /  18.6 °C 48.7 °F /  9.3 °C 30.2in /  1021.5hPa NE 5.2mph /  8.4km/h 8mph /  12.9km/h 54.7% 0in /  0.0mm
22:39 65.5 °F /  18.6 °C 49.3 °F /  9.6 °C 30.2in /  1021.5hPa NE 4.6mph /  7.4km/h 8.1mph /  13km/h 55.9% 0in /  0.0mm
22:44 65.5 °F /  18.6 °C 49.8 °F /  9.9 °C 30.2in /  1021.5hPa NE 3.6mph /  5.8km/h 8.1mph /  13km/h 57.3% 0in /  0.0mm
22:49 65.1 °F /  18.4 °C 50.2 °F /  10.1 °C 30.2in /  1021.8hPa NE 4.2mph /  6.7km/h 8.1mph /  13km/h 58.4% 0in /  0.0mm
22:54 65.1 °F /  18.4 °C 50.7 °F /  10.4 °C 30.2in /  1021.8hPa NE 5.2mph /  8.4km/h 9.2mph /  14.8km/h 59.6% 0in /  0.0mm
22:59 65.1 °F /  18.4 °C 50.9 °F /  10.5 °C 30.2in /  1021.8hPa NE 5.2mph /  8.4km/h 9mph /  14.5km/h 60% 0in /  0.0mm
23:04 64.9 °F /  18.3 °C 50.9 °F /  10.5 °C 30.2in /  1021.9hPa NE 5.2mph /  8.4km/h 9mph /  14.5km/h 60% 0in /  0.0mm
23:09 64.9 °F /  18.3 °C 50.9 °F /  10.5 °C 30.2in /  1021.9hPa NE 4.7mph /  7.6km/h 7.4mph /  11.9km/h 60.4% 0in /  0.0mm
23:14 64.9 °F /  18.3 °C 51.3 °F /  10.7 °C 30.2in /  1021.9hPa NE 4mph /  6.5km/h 7mph /  11.3km/h 61% 0in /  0.0mm
23:19 64.9 °F /  18.3 °C 51.3 °F /  10.7 °C 30.2in /  1022.1hPa NE 4mph /  6.5km/h 6.2mph /  10km/h 61.2% 0in /  0.0mm
23:24 64.8 °F /  18.2 °C 51.3 °F /  10.7 °C 30.2in /  1022.1hPa NE 4mph /  6.5km/h 6mph /  9.7km/h 61.7% 0in /  0.0mm
23:29 64.8 °F /  18.2 °C 51.6 °F /  10.9 °C 30.2in /  1022.1hPa NE 3.9mph /  6.2km/h 6mph /  9.7km/h 62.3% 0in /  0.0mm
23:34 64.8 °F /  18.2 °C 51.8 °F /  11 °C 30.2in /  1022.2hPa NE 3.6mph /  5.8km/h 5.2mph /  8.4km/h 63% 0in /  0.0mm
23:39 64.6 °F /  18.1 °C 52 °F /  11.1 °C 30.2in /  1022.2hPa NE 3.6mph /  5.8km/h 6.2mph /  10km/h 63.5% 0in /  0.0mm
23:44 64.6 °F /  18.1 °C 52 °F /  11.1 °C 30.2in /  1022.2hPa NE 3.6mph /  5.8km/h 6mph /  9.7km/h 63.9% 0in /  0.0mm
23:49 64.4 °F /  18 °C 52 °F /  11.1 °C 30.2in /  1022.3hPa NE 3.4mph /  5.5km/h 6mph /  9.7km/h 64% 0in /  0.0mm
23:54 64.2 °F /  17.9 °C 51.8 °F /  11 °C 30.2in /  1022.3hPa NE 3.1mph /  5km/h 6.2mph /  10km/h 63.8% 0in /  0.0mm
23:59 64 °F /  17.8 °C 51.3 °F /  10.7 °C 30.2in /  1022.3hPa NE 3.5mph /  5.6km/h 6mph /  9.7km/h 63% 0in /  0.0mm
Murcia-Puente Tocinos, España
Compliments of Weather Underground - 3 mb

La estación de MeteoMurcia.com, publica sus datos en los siguientes proyectos:

Weather Underground PWS IMURCIAP2 Meteoclimatic www.awekas.at

W3Counter
Web Analytics